Time;durP1;ratioP1;P1;durP2;ratioP2;P2;SDS_P1;SDS_P2;PMS_P1;PMS_P2;Temp;Humidity;BMP_temperature;BMP_pressure;BME280_temperature;BME280_humidity;BME280_pressure;Samples;Min_cycle;Max_cycle;Signal;HPM_P1;HPM_P2
2023/05/23 00:01:15;;;;;;;22.85;10.88;;;;;;;15.50;100.00;101632.00;5027408;28;20441;-82
2023/05/23 00:03:42;;;;;;;23.10;10.63;;;;;;;15.47;100.00;101639.22;5006949;28;20479;-82
2023/05/23 00:06:07;;;;;;;20.90;9.73;;;;;;;15.64;100.00;101632.06;5010300;28;20027;-82
2023/05/23 00:08:33;;;;;;;32.63;10.85;;;;;;;15.40;100.00;101639.97;5030623;28;20025;-82
2023/05/23 00:10:58;;;;;;;17.20;8.63;;;;;;;15.53;100.00;101646.09;5011528;28;20037;-81
2023/05/23 00:13:24;;;;;;;16.42;8.75;;;;;;;15.11;100.00;101657.88;5002156;28;20117;-82
2023/05/23 00:15:49;;;;;;;21.20;9.00;;;;;;;15.13;100.00;101636.56;4988738;28;20069;-81
2023/05/23 00:18:15;;;;;;;18.17;9.18;;;;;;;15.12;100.00;101634.16;4986023;28;20072;-81
2023/05/23 00:20:41;;;;;;;23.42;9.90;;;;;;;14.82;100.00;101654.81;4992954;28;20611;-82
2023/05/23 00:23:17;;;;;;;21.40;10.23;;;;;;;15.07;100.00;101654.22;4991636;28;20034;-82
2023/05/23 00:25:47;;;;;;;17.13;8.43;;;;;;;15.35;100.00;101653.66;4994328;28;20108;-82
2023/05/23 00:28:13;;;;;;;22.58;10.73;;;;;;;15.24;100.00;101654.38;4990363;28;20689;-82
2023/05/23 00:30:38;;;;;;;24.00;11.07;;;;;;;14.89;100.00;101660.53;4999345;28;20026;-82
2023/05/23 00:33:03;;;;;;;20.83;10.27;;;;;;;14.87;100.00;101653.66;5003855;28;20034;-82
2023/05/23 00:35:29;;;;;;;19.25;9.10;;;;;;;15.19;100.00;101659.56;5005192;28;20169;-82
2023/05/23 00:37:55;;;;;;;22.02;10.75;;;;;;;14.69;100.00;101657.09;4995402;28;20084;-83
2023/05/23 00:40:23;;;;;;;20.63;10.70;;;;;;;15.01;100.00;101657.44;5004344;28;20547;-83
2023/05/23 00:42:49;;;;;;;18.80;9.23;;;;;;;15.01;100.00;101657.44;5014781;28;20376;-83
2023/05/23 00:45:17;;;;;;;20.95;8.48;;;;;;;15.09;100.00;101661.09;5003190;28;20075;-83
2023/05/23 00:47:43;;;;;;;14.85;8.65;;;;;;;15.11;100.00;101672.00;5016861;28;20748;-83
2023/05/23 00:50:13;;;;;;;18.35;9.68;;;;;;;15.10;100.00;101676.03;5002112;28;20559;-83
2023/05/23 00:52:39;;;;;;;27.58;9.60;;;;;;;15.00;100.00;101669.09;5005302;28;20387;-83
2023/05/23 00:55:07;;;;;;;20.25;9.02;;;;;;;15.00;100.00;101680.34;5017803;28;20049;-83
2023/05/23 00:57:33;;;;;;;28.98;11.15;;;;;;;15.14;100.00;101669.22;5002980;28;20141;-83
2023/05/23 01:00:00;;;;;;;24.13;10.48;;;;;;;15.06;100.00;101673.16;5005593;28;20037;-83
2023/05/23 01:02:26;;;;;;;22.42;10.30;;;;;;;15.10;100.00;101671.19;5002789;28;20022;-83
2023/05/23 01:04:53;;;;;;;25.85;12.15;;;;;;;14.81;100.00;101670.91;5002825;28;20048;-83
2023/05/23 01:07:22;;;;;;;21.10;9.63;;;;;;;14.97;100.00;101686.78;5004315;28;20022;-83
2023/05/23 01:09:48;;;;;;;24.60;11.45;;;;;;;14.64;100.00;101678.00;5016022;28;20575;-83
2023/05/23 01:12:52;;;;;;;25.17;10.75;;;;;;;14.70;100.00;101681.28;5005058;28;20029;-83
2023/05/23 01:15:20;;;;;;;21.42;11.23;;;;;;;14.93;100.00;101681.09;4989042;28;20054;-84
2023/05/23 01:18:02;;;;;;;19.48;9.15;;;;;;;14.79;100.00;101678.94;5000687;28;20636;-83
2023/05/23 01:20:35;;;;;;;22.33;9.82;;;;;;;14.92;100.00;101685.09;5000684;28;20518;-83
2023/05/23 01:23:22;;;;;;;28.83;10.85;;;;;;;14.79;100.00;101690.22;5003335;28;20110;-82
2023/05/23 01:26:17;;;;;;;21.92;9.48;;;;;;;14.48;100.00;101690.66;5017424;28;20025;-82
2023/05/23 01:28:46;;;;;;;22.00;10.02;;;;;;;14.55;100.00;101691.59;4970296;28;20512;-83
2023/05/23 01:31:12;;;;;;;21.25;9.50;;;;;;;14.62;100.00;101682.41;5004507;28;20112;-82
2023/05/23 01:33:39;;;;;;;22.55;11.43;;;;;;;14.66;100.00;101690.91;5001456;28;20044;-82
2023/05/23 01:36:05;;;;;;;22.10;10.25;;;;;;;14.76;100.00;101691.00;4998606;28;20433;-82
2023/05/23 01:38:30;;;;;;;19.60;9.85;;;;;;;14.79;100.00;101690.22;5002045;28;20026;-82
2023/05/23 01:40:56;;;;;;;24.33;10.00;;;;;;;14.33;100.00;101687.69;5005399;28;20525;-82
2023/05/23 01:43:23;;;;;;;18.23;8.75;;;;;;;14.58;100.00;101701.28;5003591;28;20026;-82
2023/05/23 01:45:50;;;;;;;18.65;9.15;;;;;;;14.53;100.00;101704.41;4999798;28;20507;-82
2023/05/23 01:48:17;;;;;;;18.85;8.80;;;;;;;14.54;100.00;101706.03;5000034;28;21661;-83
2023/05/23 01:50:46;;;;;;;20.60;8.70;;;;;;;14.79;100.00;101701.50;4995858;28;20030;-82
2023/05/23 01:53:21;;;;;;;18.48;9.70;;;;;;;14.60;100.00;101698.88;4999039;28;20032;-82
2023/05/23 01:55:46;;;;;;;21.08;9.40;;;;;;;14.65;100.00;101706.97;5003093;28;20100;-82
2023/05/23 01:58:12;;;;;;;21.70;7.90;;;;;;;14.55;100.00;101708.50;4999717;28;20124;-82
2023/05/23 02:00:37;;;;;;;16.98;8.05;;;;;;;14.58;100.00;101712.53;4998589;28;20033;-83
2023/05/23 02:03:03;;;;;;;19.50;8.25;;;;;;;14.47;100.00;101711.59;4996071;28;20034;-82
2023/05/23 02:05:29;;;;;;;22.60;7.80;;;;;;;14.59;100.00;101712.16;5012753;28;20026;-82
2023/05/23 02:07:54;;;;;;;17.67;8.65;;;;;;;14.67;100.00;101715.06;5000760;28;20032;-82
2023/05/23 02:10:20;;;;;;;16.70;7.15;;;;;;;14.89;100.00;101710.47;4996910;28;20028;-82
2023/05/23 02:12:45;;;;;;;16.77;7.45;;;;;;;14.89;100.00;101721.75;5000197;28;20026;-82
2023/05/23 02:15:11;;;;;;;16.88;7.75;;;;;;;14.75;100.00;101723.19;5017712;28;20045;-82
2023/05/23 02:17:37;;;;;;;20.05;7.80;;;;;;;14.90;100.00;101723.34;5021630;28;20047;-83
2023/05/23 02:20:03;;;;;;;16.48;8.70;;;;;;;14.34;100.00;101725.94;5022791;28;20037;-82
2023/05/23 02:22:29;;;;;;;17.85;8.60;;;;;;;14.63;100.00;101731.91;5022675;28;20041;-82
2023/05/23 02:24:54;;;;;;;13.77;6.90;;;;;;;14.77;100.00;101743.34;5008236;28;20099;-83
2023/05/23 02:27:19;;;;;;;16.38;7.38;;;;;;;14.62;100.00;101741.56;5024809;28;20107;-83
2023/05/23 02:29:45;;;;;;;15.95;8.43;;;;;;;14.37;100.00;101742.03;5026511;28;20022;-83
2023/05/23 02:32:10;;;;;;;16.70;8.43;;;;;;;14.50;100.00;101739.78;5025958;28;20025;-83
2023/05/23 02:34:39;;;;;;;23.13;10.50;;;;;;;14.40;100.00;101741.28;5023098;28;20390;-83
2023/05/23 02:37:04;;;;;;;17.10;8.13;;;;;;;14.40;100.00;101751.75;5024943;28;20034;-83
2023/05/23 02:39:30;;;;;;;16.70;7.28;;;;;;;14.22;100.00;101746.69;5024783;28;20040;-83
2023/05/23 02:41:55;;;;;;;15.60;7.95;;;;;;;14.05;100.00;101752.09;5020141;28;20961;-82
2023/05/23 02:44:20;;;;;;;20.13;8.05;;;;;;;14.39;100.00;101753.75;5015988;28;20120;-83
2023/05/23 02:46:46;;;;;;;14.55;8.57;;;;;;;14.43;100.00;101765.88;5020994;28;20033;-83
2023/05/23 02:49:11;;;;;;;15.43;7.28;;;;;;;14.38;100.00;101760.59;5022645;28;20025;-83
2023/05/23 02:51:37;;;;;;;16.92;7.90;;;;;;;14.30;100.00;101761.69;5004968;28;20649;-83
2023/05/23 02:54:02;;;;;;;15.07;7.20;;;;;;;14.55;100.00;101764.00;5025730;28;20029;-83
2023/05/23 02:56:28;;;;;;;15.68;7.47;;;;;;;14.68;100.00;101756.94;5020519;28;20030;-83
2023/05/23 02:58:53;;;;;;;19.10;7.82;;;;;;;14.69;100.00;101758.56;5018900;28;20041;-83
2023/05/23 03:01:19;;;;;;;13.40;7.35;;;;;;;14.57;100.00;101767.28;5022300;28;20033;-83
2023/05/23 03:03:44;;;;;;;13.80;7.68;;;;;;;14.68;100.00;101756.94;5021584;28;20036;-83
2023/05/23 03:06:13;;;;;;;13.07;6.18;;;;;;;14.82;100.00;101756.28;5012020;28;20125;-82
2023/05/23 03:08:41;;;;;;;17.50;7.22;;;;;;;14.16;100.00;101761.47;5002596;28;20101;-82
2023/05/23 03:11:07;;;;;;;15.25;6.30;;;;;;;14.24;100.00;101766.03;5020487;28;20772;-83
2023/05/23 03:13:33;;;;;;;17.08;7.28;;;;;;;14.28;100.00;101771.72;5020906;28;20168;-84
2023/05/23 03:15:59;;;;;;;9.73;5.90;;;;;;;14.32;100.00;101761.31;5000680;28;20033;-83
2023/05/23 03:18:24;;;;;;;13.15;6.80;;;;;;;14.30;100.00;101766.50;5000140;28;20036;-83
2023/05/23 03:20:50;;;;;;;13.57;7.18;;;;;;;14.31;100.00;101766.09;5023427;28;20629;-83
2023/05/23 03:23:15;;;;;;;14.35;7.03;;;;;;;14.36;100.00;101771.41;5001050;28;20083;-83
2023/05/23 03:25:42;;;;;;;13.98;7.95;;;;;;;14.49;100.00;101766.34;5004741;28;20037;-83
2023/05/23 03:28:07;;;;;;;17.45;7.30;;;;;;;14.16;100.00;101767.09;5028146;28;20065;-83
2023/05/23 03:30:33;;;;;;;16.15;6.68;;;;;;;14.29;100.00;101764.88;5014883;28;20519;-83
2023/05/23 03:32:58;;;;;;;12.93;6.32;;;;;;;14.28;100.00;101772.50;5001110;28;20487;-83
2023/05/23 03:35:23;;;;;;;16.75;6.32;;;;;;;14.46;100.00;101769.09;5022568;28;20061;-83
2023/05/23 03:37:49;;;;;;;14.88;6.85;;;;;;;14.22;100.00;101774.03;5011526;28;20400;-83
2023/05/23 03:40:14;;;;;;;11.07;6.43;;;;;;;14.39;100.00;101769.84;5025815;28;20043;-83
2023/05/23 03:42:39;;;;;;;17.80;7.18;;;;;;;14.33;100.00;101780.63;5012130;28;20042;-83
2023/05/23 03:45:05;;;;;;;19.40;8.60;;;;;;;14.15;100.00;101777.56;5025581;28;20026;-83
2023/05/23 03:47:31;;;;;;;20.13;6.65;;;;;;;13.97;100.00;101784.94;5021063;28;20036;-83
2023/05/23 03:49:56;;;;;;;14.00;6.68;;;;;;;14.32;100.00;101779.00;5005184;28;20026;-83
2023/05/23 03:52:22;;;;;;;15.65;6.15;;;;;;;14.27;100.00;101784.16;5018695;28;20037;-83
2023/05/23 03:54:47;;;;;;;14.23;6.03;;;;;;;14.09;100.00;101786.72;5012013;28;20041;-83
2023/05/23 03:57:12;;;;;;;17.15;8.05;;;;;;;13.85;100.00;101785.16;5019885;28;20025;-83
2023/05/23 03:59:38;;;;;;;15.50;6.30;;;;;;;13.88;100.00;101793.66;5021475;28;20033;-83
2023/05/23 04:02:04;;;;;;;11.75;6.13;;;;;;;13.75;100.00;101781.81;5017104;28;20506;-82
2023/05/23 04:04:30;;;;;;;24.63;8.07;;;;;;;14.00;100.00;101795.44;5019557;28;20393;-82
2023/05/23 04:06:56;;;;;;;14.93;6.20;;;;;;;13.86;100.00;101798.84;5019619;28;20032;-82
2023/05/23 04:09:22;;;;;;;18.60;7.10;;;;;;;13.45;100.00;101804.22;5000394;28;20022;-82
2023/05/23 04:11:47;;;;;;;20.65;7.60;;;;;;;13.78;100.00;101805.56;5003009;28;20158;-82
2023/05/23 04:14:13;;;;;;;18.92;6.88;;;;;;;13.89;100.00;101800.09;5017246;28;20053;-82
2023/05/23 04:16:40;;;;;;;18.40;7.63;;;;;;;13.50;100.00;101803.91;5014535;28;20040;-82
2023/05/23 04:19:06;;;;;;;19.52;6.00;;;;;;;13.67;100.00;101810.19;5021687;28;20502;-82
2023/05/23 04:21:32;;;;;;;16.02;6.22;;;;;;;13.58;100.00;101813.28;5011167;28;20448;-82
2023/05/23 04:23:57;;;;;;;22.27;6.43;;;;;;;13.67;100.00;101815.84;5012076;28;20116;-82
2023/05/23 04:26:22;;;;;;;14.45;6.25;;;;;;;13.65;100.00;101812.59;5011442;28;20037;-83
2023/05/23 04:28:49;;;;;;;16.05;6.93;;;;;;;13.55;100.00;101825.25;5014069;28;20763;-82
2023/05/23 04:31:14;;;;;;;14.43;6.30;;;;;;;13.54;100.00;101829.28;5012623;28;20068;-83
2023/05/23 04:33:40;;;;;;;20.33;7.93;;;;;;;13.69;100.00;101824.72;5015551;28;20112;-82
2023/05/23 04:36:08;;;;;;;13.90;6.63;;;;;;;13.65;100.00;101835.09;5014316;28;20056;-82
2023/05/23 04:38:33;;;;;;;14.52;6.45;;;;;;;13.65;100.00;101840.72;5021540;28;20087;-83
2023/05/23 04:40:58;;;;;;;15.95;5.82;;;;;;;13.88;100.00;101833.06;5016826;28;20037;-82
2023/05/23 04:43:25;;;;;;;13.15;6.15;;;;;;;13.79;100.00;101832.50;5002983;28;20426;-82
2023/05/23 04:45:53;;;;;;;14.20;5.97;;;;;;;13.50;100.00;101839.66;5014834;28;20672;-82
2023/05/23 04:48:20;;;;;;;15.85;4.60;;;;;;;13.62;100.00;101842.28;4999901;28;20033;-82
2023/05/23 04:50:47;;;;;;;14.27;5.07;;;;;;;13.56;100.00;101844.59;5015157;28;20471;-82
2023/05/23 04:53:13;;;;;;;16.30;6.15;;;;;;;13.67;100.00;101849.59;5020005;28;21209;-83
2023/05/23 04:55:38;;;;;;;11.85;5.43;;;;;;;13.81;100.00;101861.09;5002629;28;20041;-82
2023/05/23 04:58:04;;;;;;;17.88;4.82;;;;;;;13.56;100.00;101861.47;5019391;28;20061;-82
2023/05/23 05:00:29;;;;;;;8.13;4.55;;;;;;;13.56;100.00;101869.09;5000647;28;20033;-82
2023/05/23 05:02:55;;;;;;;14.80;5.03;;;;;;;13.53;100.00;101859.38;5001515;28;20395;-82
2023/05/23 05:05:20;;;;;;;14.40;5.40;;;;;;;13.45;100.00;101871.72;5018045;28;20407;-82
2023/05/23 05:07:45;;;;;;;11.32;4.57;;;;;;;13.68;100.00;101879.34;5018885;28;20369;-82
2023/05/23 05:10:15;;;;;;;14.52;5.60;;;;;;;13.60;100.00;101884.03;5012788;28;20033;-82
2023/05/23 05:12:42;;;;;;;12.05;5.45;;;;;;;13.37;100.00;101884.03;5018218;28;20021;-82
2023/05/23 05:15:08;;;;;;;11.25;4.28;;;;;;;13.26;100.00;101886.59;4998193;28;20045;-82
2023/05/23 05:17:35;;;;;;;11.85;5.07;;;;;;;13.21;100.00;101884.06;5017792;28;20036;-82
2023/05/23 05:20:04;;;;;;;16.13;5.13;;;;;;;13.31;100.00;101888.31;5025570;28;20376;-82
2023/05/23 05:22:30;;;;;;;17.55;4.60;;;;;;;13.38;100.00;101896.88;5023224;28;20488;-82
2023/05/23 05:24:55;;;;;;;10.75;6.07;;;;;;;13.42;100.00;101892.13;5018642;28;20061;-82
2023/05/23 05:27:21;;;;;;;12.60;4.07;;;;;;;13.37;100.00;101895.25;5013331;28;20084;-82
2023/05/23 05:29:46;;;;;;;8.98;4.35;;;;;;;13.39;100.00;101907.75;5017018;28;20641;-82
2023/05/23 05:32:12;;;;;;;10.77;3.67;;;;;;;13.62;100.00;101916.22;5019029;28;20150;-83
2023/05/23 05:34:37;;;;;;;7.80;4.10;;;;;;;13.27;100.00;101921.94;5019871;28;20036;-82
2023/05/23 05:37:03;;;;;;;13.98;4.53;;;;;;;13.09;100.00;101927.22;4994311;28;20104;-82
2023/05/23 05:39:28;;;;;;;13.63;5.00;;;;;;;13.02;100.00;101925.06;5004363;28;20041;-82
2023/05/23 05:41:54;;;;;;;12.18;4.35;;;;;;;13.32;100.00;101930.09;5003259;28;20135;-82
2023/05/23 05:44:20;;;;;;;18.23;5.10;;;;;;;13.33;100.00;101934.56;5019015;28;20034;-82
2023/05/23 05:46:45;;;;;;;9.73;4.35;;;;;;;13.41;100.00;101929.91;4996259;28;20025;-81
2023/05/23 05:49:10;;;;;;;11.68;4.72;;;;;;;13.09;100.00;101932.84;5000525;28;20022;-82
2023/05/23 05:51:36;;;;;;;10.80;4.45;;;;;;;13.14;100.00;101935.34;5018108;28;20052;-82
2023/05/23 05:54:01;;;;;;;13.30;4.57;;;;;;;12.98;100.00;101935.41;5006671;28;20021;-82
2023/05/23 05:56:27;;;;;;;14.48;5.22;;;;;;;12.91;100.00;101948.50;5019789;28;20029;-82
2023/05/23 05:58:52;;;;;;;12.23;5.20;;;;;;;12.93;100.00;101949.75;5002893;28;20033;-82
2023/05/23 06:01:18;;;;;;;14.30;5.22;;;;;;;13.30;100.00;101957.81;5001814;28;20045;-82
2023/05/23 06:03:43;;;;;;;9.52;4.72;;;;;;;12.88;100.00;101955.69;5020499;28;20030;-82
2023/05/23 06:06:09;;;;;;;12.05;3.97;;;;;;;12.96;100.00;101956.63;4985370;28;20045;-83
2023/05/23 06:08:34;;;;;;;12.00;6.38;;;;;;;12.87;100.00;101978.50;5019839;28;20029;-82
2023/05/23 06:10:59;;;;;;;13.23;4.95;;;;;;;13.62;100.00;101985.75;5007567;28;20283;-78
2023/05/23 06:13:25;;;;;;;11.18;5.65;;;;;;;13.56;100.00;101976.00;5013703;28;20385;-78
2023/05/23 06:15:50;;;;;;;11.48;4.15;;;;;;;13.59;100.00;101980.84;5009207;28;20120;-78
2023/05/23 06:18:16;;;;;;;15.82;4.82;;;;;;;13.65;100.00;101982.19;5004800;28;20037;-78
2023/05/23 06:20:41;;;;;;;10.80;4.88;;;;;;;13.22;100.00;101973.66;5002087;28;20130;-78
2023/05/23 06:23:07;;;;;;;14.73;4.97;;;;;;;13.37;100.00;101976.81;5009001;28;20111;-78
2023/05/23 06:25:33;;;;;;;13.60;4.95;;;;;;;13.27;100.00;101974.56;4996914;28;20491;-78
2023/05/23 06:27:58;;;;;;;8.98;4.28;;;;;;;13.42;100.00;101985.75;5008652;28;20037;-78
2023/05/23 06:30:23;;;;;;;9.73;5.22;;;;;;;13.52;100.00;101973.09;5011912;28;20037;-78
2023/05/23 06:32:49;;;;;;;12.75;4.45;;;;;;;13.43;100.00;101980.97;5015914;28;20022;-78
2023/05/23 06:35:14;;;;;;;13.82;4.38;;;;;;;13.41;100.00;101984.13;5013808;28;20091;-78
2023/05/23 06:37:44;;;;;;;7.03;4.47;;;;;;;13.51;100.00;101988.31;4999601;28;20061;-77
2023/05/23 06:40:10;;;;;;;9.23;3.83;;;;;;;12.92;100.00;101989.47;5015100;28;20034;-86
2023/05/23 06:42:36;;;;;;;4.97;3.88;;;;;;;12.59;100.00;102004.78;5019928;28;20030;-86
2023/05/23 06:45:01;;;;;;;12.13;4.13;;;;;;;12.67;100.00;102000.94;5029602;28;20046;-86
2023/05/23 06:47:26;;;;;;;13.15;3.67;;;;;;;12.48;100.00;101998.91;5005413;28;20028;-87
2023/05/23 06:49:52;;;;;;;10.30;4.10;;;;;;;12.87;100.00;101998.19;5024257;28;20021;-87
2023/05/23 06:52:17;;;;;;;9.68;3.80;;;;;;;12.69;100.00;102004.22;5019810;28;20571;-85
2023/05/23 06:54:42;;;;;;;12.85;4.13;;;;;;;12.91;100.00;102004.72;5025659;28;20112;-86
2023/05/23 06:57:08;;;;;;;11.18;3.85;;;;;;;12.90;100.00;102003.06;5023760;28;20105;-85
2023/05/23 06:59:33;;;;;;;9.73;3.70;;;;;;;12.92;100.00;102006.31;5003419;28;20227;-86
2023/05/23 07:01:58;;;;;;;8.43;3.78;;;;;;;12.65;100.00;102025.78;5020719;28;20030;-86
2023/05/23 07:04:24;;;;;;;14.45;3.80;;;;;;;12.46;100.00;102022.88;5011658;28;20049;-86
2023/05/23 07:06:51;;;;;;;6.53;3.05;;;;;;;12.39;100.00;102021.50;5024224;28;20056;-86
2023/05/23 07:09:16;;;;;;;14.40;3.92;;;;;;;12.79;100.00;102031.72;5033998;28;20557;-87
2023/05/23 07:11:42;;;;;;;7.78;2.80;;;;;;;12.92;100.00;102028.81;5027992;28;20049;-87
2023/05/23 07:14:07;;;;;;;11.43;2.95;;;;;;;12.97;100.00;102015.28;5034295;28;20539;-87
2023/05/23 07:16:33;;;;;;;11.35;2.67;;;;;;;12.98;100.00;102036.56;5009625;28;20107;-85
2023/05/23 07:19:00;;;;;;;6.88;2.90;;;;;;;13.10;100.00;102026.41;5028462;28;20168;-86
2023/05/23 07:21:25;;;;;;;8.18;2.88;;;;;;;13.18;100.00;102026.19;5011220;28;20033;-87
2023/05/23 07:23:50;;;;;;;6.65;3.10;;;;;;;12.87;100.00;102027.09;5025159;28;20037;-86
2023/05/23 07:26:16;;;;;;;11.57;3.33;;;;;;;13.02;100.00;102025.41;5025089;28;20040;-86
2023/05/23 07:28:41;;;;;;;7.35;2.67;;;;;;;13.22;100.00;102035.53;5027696;28;20402;-86
2023/05/23 07:31:08;;;;;;;11.98;6.10;;;;;;;13.15;100.00;102040.97;5024585;28;20155;-86
2023/05/23 07:33:33;;;;;;;15.60;4.18;;;;;;;13.21;100.00;102050.75;5025054;28;20048;-86
2023/05/23 07:35:59;;;;;;;12.88;3.00;;;;;;;13.33;100.00;102054.66;5029240;28;20123;-86
2023/05/23 07:38:25;;;;;;;7.50;2.75;;;;;;;13.36;100.00;102049.09;5024934;28;20033;-86
2023/05/23 07:40:51;;;;;;;10.15;3.38;;;;;;;13.02;100.00;102053.53;5013697;28;20395;-86
2023/05/23 07:43:16;;;;;;;8.85;3.45;;;;;;;13.35;100.00;102060.72;5030019;28;20029;-87
2023/05/23 07:45:41;;;;;;;9.13;3.33;;;;;;;13.19;100.00;102055.13;5027119;28;20036;-86
2023/05/23 07:48:08;;;;;;;14.40;3.40;;;;;;;13.34;99.14;102059.09;5027350;28;20033;-86
2023/05/23 07:50:33;;;;;;;14.98;4.30;;;;;;;13.25;99.43;102053.66;5024081;28;20028;-86
2023/05/23 07:52:59;;;;;;;14.65;3.38;;;;;;;13.33;98.63;102054.66;5025743;28;20021;-86
2023/05/23 07:55:24;;;;;;;13.32;3.70;;;;;;;13.41;95.90;102057.25;5004938;28;20391;-86
2023/05/23 07:57:51;;;;;;;13.23;2.75;;;;;;;13.31;97.73;102054.22;5016380;28;20376;-86
2023/05/23 08:00:17;;;;;;;12.70;3.30;;;;;;;13.39;98.11;102048.38;5018326;28;20071;-86
2023/05/23 08:02:42;;;;;;;12.50;5.78;;;;;;;13.27;97.26;102051.28;5016859;28;20041;-86
2023/05/23 08:05:08;;;;;;;13.45;3.03;;;;;;;13.29;97.57;102053.78;5021931;28;20064;-85
2023/05/23 08:07:33;;;;;;;15.68;3.83;;;;;;;13.18;96.53;102056.31;5002874;28;20116;-85
2023/05/23 08:09:59;;;;;;;12.73;3.03;;;;;;;12.99;97.55;102071.13;5020940;28;20052;-85
2023/05/23 08:12:24;;;;;;;10.18;2.92;;;;;;;13.00;97.40;102067.13;5013111;28;20149;-85
2023/05/23 08:14:50;;;;;;;9.68;2.60;;;;;;;13.15;95.68;102066.28;5016163;28;20041;-85
2023/05/23 08:17:15;;;;;;;5.75;2.58;;;;;;;13.16;93.46;102073.53;5012326;28;20021;-86
2023/05/23 08:19:40;;;;;;;7.05;2.53;;;;;;;13.18;93.43;102070.38;5018320;28;20025;-86
2023/05/23 08:22:06;;;;;;;6.57;3.53;;;;;;;13.30;94.74;102067.47;5027328;28;20517;-87
2023/05/23 08:24:33;;;;;;;20.95;3.30;;;;;;;13.28;95.48;102072.63;5023781;28;20463;-86
2023/05/23 08:26:58;;;;;;;10.18;3.65;;;;;;;13.23;92.71;102076.50;5008465;28;20526;-87
2023/05/23 08:29:23;;;;;;;13.57;3.30;;;;;;;13.26;92.29;102082.56;5027452;28;20028;-87
2023/05/23 08:31:49;;;;;;;14.10;2.90;;;;;;;13.32;93.36;102076.31;5024327;28;20033;-86
2023/05/23 08:34:14;;;;;;;16.73;3.53;;;;;;;13.38;91.83;102076.84;5027646;28;20029;-85
2023/05/23 08:36:41;;;;;;;11.43;3.10;;;;;;;13.44;89.37;102089.44;5009728;28;20034;-86
2023/05/23 08:39:07;;;;;;;9.30;2.90;;;;;;;13.51;89.79;102103.66;5005642;28;20041;-87
2023/05/23 08:41:33;;;;;;;10.32;3.33;;;;;;;13.71;90.16;102086.81;5024064;28;20037;-87
2023/05/23 08:43:59;;;;;;;13.70;3.28;;;;;;;13.85;86.54;102100.34;5029678;28;20108;-86
2023/05/23 08:46:26;;;;;;;15.52;2.95;;;;;;;13.86;87.28;102090.72;5025739;28;20117;-87
2023/05/23 08:48:53;;;;;;;11.23;2.97;;;;;;;13.63;85.84;102097.09;5026139;28;20109;-87
2023/05/23 08:51:23;;;;;;;15.85;3.30;;;;;;;13.68;85.27;102098.78;5016609;28;20478;-86
2023/05/23 08:53:49;;;;;;;8.80;3.63;;;;;;;13.65;85.86;102093.91;5015905;28;20037;-87
2023/05/23 08:56:18;;;;;;;10.50;2.70;;;;;;;13.80;86.67;102107.09;5018416;28;20036;-86
2023/05/23 08:58:46;;;;;;;9.85;3.17;;;;;;;13.50;86.12;102104.84;5017877;28;20040;-86
2023/05/23 09:01:19;;;;;;;15.43;3.15;;;;;;;13.48;86.28;102095.97;5022241;28;20033;-86
2023/05/23 09:03:44;;;;;;;10.27;2.80;;;;;;;13.61;86.34;102093.81;5023823;28;20029;-86
2023/05/23 09:06:09;;;;;;;10.70;3.25;;;;;;;13.84;85.91;102096.72;5022763;28;20032;-88
2023/05/23 09:08:35;;;;;;;9.65;3.50;;;;;;;13.96;84.79;102098.59;4999925;28;20044;-87
2023/05/23 09:11:02;;;;;;;8.90;3.67;;;;;;;13.94;84.00;102101.75;5020570;28;20122;-86
2023/05/23 09:13:32;;;;;;;13.10;2.50;;;;;;;14.01;82.08;102113.16;5021807;28;20057;-87
2023/05/23 09:16:01;;;;;;;10.75;3.75;;;;;;;14.03;82.70;102107.16;5023131;28;20120;-87
2023/05/23 09:18:31;;;;;;;10.77;4.55;;;;;;;14.35;83.86;102104.13;5020934;28;20033;-87
2023/05/23 09:20:57;;;;;;;18.05;5.47;;;;;;;14.32;83.79;102119.78;5016703;28;20037;-87
2023/05/23 09:23:22;;;;;;;9.57;2.58;;;;;;;14.30;82.01;102110.09;5003585;28;20116;-87
2023/05/23 09:25:48;;;;;;;16.30;2.97;;;;;;;14.41;83.16;102109.09;5015736;28;20158;-88
2023/05/23 09:28:13;;;;;;;10.20;3.63;;;;;;;14.62;83.23;102111.50;5022362;28;20182;-88
2023/05/23 09:30:39;;;;;;;13.10;3.67;;;;;;;14.59;81.69;102114.28;5019947;28;20033;-87
2023/05/23 09:33:04;;;;;;;13.57;3.83;;;;;;;14.10;83.34;102120.56;5019630;28;20056;-88
2023/05/23 09:35:30;;;;;;;12.82;4.15;;;;;;;14.19;83.31;102133.22;5023260;28;20519;-87
2023/05/23 09:37:58;;;;;;;15.77;3.15;;;;;;;14.34;81.78;102119.41;5004932;28;20025;-88
2023/05/23 09:40:29;;;;;;;9.23;3.70;;;;;;;14.41;81.89;102130.81;5014170;28;20752;-87
2023/05/23 09:43:00;;;;;;;6.90;2.60;;;;;;;14.36;78.82;102129.13;5020654;28;20126;-88
2023/05/23 09:45:29;;;;;;;6.68;3.05;;;;;;;14.61;78.21;102123.16;5017659;28;20032;-87
2023/05/23 09:47:55;;;;;;;9.48;3.28;;;;;;;14.72;79.38;102138.25;5022105;28;20064;-87
2023/05/23 09:50:21;;;;;;;15.88;4.07;;;;;;;14.79;80.47;102134.72;5007542;28;20057;-83
2023/05/23 09:52:47;;;;;;;5.63;2.67;;;;;;;16.22;82.89;102138.81;5019943;28;20021;-83
2023/05/23 09:55:12;;;;;;;9.77;3.00;;;;;;;15.75;84.53;102131.78;5018370;28;20028;-83
2023/05/23 09:57:41;;;;;;;15.82;4.70;;;;;;;15.18;77.27;102129.75;5022923;28;20049;-89
2023/05/23 10:00:13;;;;;;;10.27;2.60;;;;;;;14.58;80.18;102140.81;5019152;28;20099;-88
2023/05/23 10:02:39;;;;;;;;;;;;;;;14.64;80.38;102142.13;5001327;28;20029;-86
2023/05/23 10:05:07;;;;;;;7.78;2.75;;;;;;;14.62;78.79;102136.06;5019840;28;19951;-88
2023/05/23 10:07:34;;;;;;;10.90;3.78;;;;;;;15.09;80.07;102132.00;5017557;28;20030;-87
2023/05/23 10:10:08;;;;;;;12.63;3.10;;;;;;;14.79;78.71;102143.19;5019966;28;20106;-88
2023/05/23 10:12:43;;;;;;;13.98;3.13;;;;;;;14.73;77.88;102139.06;5022387;28;20033;-88
2023/05/23 10:15:12;;;;;;;9.45;2.97;;;;;;;14.56;79.21;102140.38;5003725;28;20046;-87
2023/05/23 10:18:04;;;;;;;9.18;3.17;;;;;;;14.84;79.45;102138.06;5003354;28;20044;-88
2023/05/23 10:20:31;;;;;;;12.82;3.35;;;;;;;14.97;76.96;102140.69;5003485;28;20057;-88
2023/05/23 10:23:01;;;;;;;9.10;2.85;;;;;;;15.40;76.90;102142.16;5002006;28;20064;-88
2023/05/23 10:25:27;;;;;;;10.10;2.47;;;;;;;15.38;74.46;102150.19;5015703;28;20022;-87
2023/05/23 10:27:58;;;;;;;12.13;3.60;;;;;;;15.58;74.21;102153.72;4999959;28;20140;-87
2023/05/23 10:30:27;;;;;;;10.75;2.53;;;;;;;15.76;73.96;102158.81;4993907;28;20038;-87
2023/05/23 10:32:54;;;;;;;13.20;3.35;;;;;;;15.58;76.46;102148.06;4994943;28;20037;-87
2023/05/23 10:35:29;;;;;;;10.18;3.10;;;;;;;15.47;77.15;102157.56;4999634;28;20954;-89
2023/05/23 10:38:18;;;;;;;8.25;3.28;;;;;;;14.98;78.27;102156.41;4997696;28;20045;-88
2023/05/23 10:41:17;;;;;;;8.23;3.03;;;;;;;15.41;77.84;102157.91;5000375;28;20053;-87
2023/05/23 10:43:56;;;;;;;9.38;2.67;;;;;;;15.60;76.26;102154.13;5018539;28;20146;-87
2023/05/23 10:46:21;;;;;;;9.27;3.08;;;;;;;15.87;74.43;102154.09;5021606;28;20030;-87
2023/05/23 10:48:53;;;;;;;7.22;2.35;;;;;;;15.98;75.04;102159.88;5006317;28;20563;-86
2023/05/23 10:51:20;;;;;;;10.80;3.47;;;;;;;15.92;75.65;102167.09;5018663;28;20026;-88
2023/05/23 10:53:53;;;;;;;13.82;2.83;;;;;;;15.33;75.58;102163.81;5019676;28;20029;-87
2023/05/23 10:56:22;;;;;;;13.32;3.13;;;;;;;15.36;76.22;102168.69;5002523;28;20026;-87
2023/05/23 10:58:54;;;;;;;6.22;2.20;;;;;;;15.44;74.35;102167.59;5004090;28;20366;-87
2023/05/23 11:01:20;;;;;;;10.95;2.95;;;;;;;15.84;74.32;102178.28;5000967;28;20036;-87
2023/05/23 11:03:45;;;;;;;13.63;3.30;;;;;;;15.86;72.69;102166.59;5005880;28;20133;-87
2023/05/23 11:06:27;;;;;;;7.07;2.22;;;;;;;15.65;72.03;102176.38;5001463;28;20057;-87
2023/05/23 11:09:02;;;;;;;10.70;3.28;;;;;;;15.47;74.92;102164.00;5003839;28;20559;-86
2023/05/23 11:11:52;;;;;;;10.43;2.90;;;;;;;15.64;77.03;102174.75;5008450;28;20060;-87